Time;durP1;ratioP1;P1;durP2;ratioP2;P2;SDS_P1;SDS_P2;PMS_P1;PMS_P2;Temp;Humidity;BMP_temperature;BMP_pressure;BME280_temperature;BME280_humidity;BME280_pressure;Samples;Min_cycle;Max_cycle;Signal;HPM_P1;HPM_P2
2022/05/09 00:00:10;;;;;;;9.20;4.20;;;14.10;66.60;;;;;;5011616;28;20565;-57
2022/05/09 00:02:36;;;;;;;8.32;3.90;;;14.00;66.80;;;;;;5011105;28;20018;-54
2022/05/09 00:05:01;;;;;;;8.95;4.53;;;13.90;66.10;;;;;;5007783;28;20031;-56
2022/05/09 00:07:27;;;;;;;6.95;4.30;;;13.80;65.90;;;;;;5010624;28;20095;-58
2022/05/09 00:09:53;;;;;;;7.70;4.00;;;13.60;66.00;;;;;;5007687;28;20037;-57
2022/05/09 00:12:18;;;;;;;8.07;4.38;;;13.60;66.40;;;;;;5016268;28;20049;-55
2022/05/09 00:14:44;;;;;;;8.27;4.07;;;13.40;67.00;;;;;;5011817;28;20041;-57
2022/05/09 00:17:10;;;;;;;9.48;4.90;;;13.40;67.00;;;;;;5014586;28;20482;-56
2022/05/09 00:19:36;;;;;;;6.53;4.05;;;13.40;66.80;;;;;;5014172;28;20034;-56
2022/05/09 00:22:02;;;;;;;8.05;4.47;;;13.40;67.40;;;;;;5014659;28;20041;-57
2022/05/09 00:24:29;;;;;;;8.65;4.93;;;13.40;68.50;;;;;;5014142;28;20526;-53
2022/05/09 00:26:55;;;;;;;7.85;4.30;;;13.50;70.00;;;;;;5014469;28;20134;-55
2022/05/09 00:29:21;;;;;;;7.55;4.72;;;13.60;72.40;;;;;;5014215;28;20030;-54
2022/05/09 00:31:49;;;;;;;9.73;4.50;;;13.60;73.70;;;;;;5013786;28;20030;-55
2022/05/09 00:34:19;;;;;;;7.80;4.57;;;13.60;73.70;;;;;;5013778;28;20148;-55
2022/05/09 00:36:46;;;;;;;10.52;4.57;;;13.50;71.80;;;;;;5014412;28;20512;-56
2022/05/09 00:39:12;;;;;;;5.75;3.63;;;13.40;71.20;;;;;;5014341;28;20087;-56
2022/05/09 00:41:39;;;;;;;8.20;4.70;;;13.30;71.10;;;;;;5015068;28;20025;-52
2022/05/09 00:44:07;;;;;;;5.47;3.90;;;13.30;71.00;;;;;;5014836;28;20026;-55
2022/05/09 00:46:33;;;;;;;8.20;4.18;;;13.10;71.10;;;;;;5015508;28;20034;-56
2022/05/09 00:49:22;;;;;;;8.27;4.20;;;13.00;71.10;;;;;;5014186;28;20383;-54
2022/05/09 00:52:04;;;;;;;7.13;4.40;;;13.00;71.40;;;;;;5013732;28;20199;-56
2022/05/09 00:54:38;;;;;;;7.07;4.60;;;12.90;71.50;;;;;;5013979;28;20095;-55
2022/05/09 00:57:10;;;;;;;9.52;4.53;;;12.90;71.90;;;;;;5013894;28;20045;-53
2022/05/09 00:59:39;;;;;;;10.10;5.15;;;12.90;72.10;;;;;;5013841;28;20398;-56
2022/05/09 01:02:04;;;;;;;7.15;4.72;;;12.90;72.70;;;;;;5013785;28;20030;-56
2022/05/09 01:04:34;;;;;;;9.48;4.95;;;12.90;72.80;;;;;;5013618;28;20124;-57
2022/05/09 01:07:00;;;;;;;8.30;3.78;;;12.90;73.10;;;;;;5013430;28;20478;-53
2022/05/09 01:09:26;;;;;;;7.65;4.40;;;12.80;73.50;;;;;;5014389;28;20038;-52
2022/05/09 01:11:52;;;;;;;8.38;4.38;;;12.90;73.60;;;;;;5013657;28;20061;-54
2022/05/09 01:14:27;;;;;;;9.10;5.10;;;12.90;73.30;;;;;;5013035;28;20064;-56
2022/05/09 01:16:53;;;;;;;9.50;4.80;;;12.80;73.60;;;;;;5013628;28;20033;-56
2022/05/09 01:19:36;;;;;;;7.30;4.00;;;12.80;73.50;;;;;;5013807;28;20032;-57
2022/05/09 01:22:04;;;;;;;7.53;4.40;;;12.70;73.50;;;;;;5012756;28;20030;-51
2022/05/09 01:24:30;;;;;;;8.85;4.57;;;12.60;73.40;;;;;;5014226;28;20034;-53
2022/05/09 01:26:57;;;;;;;14.77;4.90;;;12.50;73.70;;;;;;5012498;28;20498;-56
2022/05/09 01:29:44;;;;;;;7.07;4.53;;;12.50;73.70;;;;;;4999495;28;20433;-51
2022/05/09 01:32:13;;;;;;;7.25;4.38;;;12.50;74.10;;;;;;4998732;28;20557;-55
2022/05/09 01:34:43;;;;;;;7.25;4.70;;;12.60;74.10;;;;;;5012611;28;20042;-53
2022/05/09 01:37:09;;;;;;;9.95;4.20;;;12.60;73.90;;;;;;5011858;28;20053;-54
2022/05/09 01:39:36;;;;;;;9.57;4.45;;;12.50;74.00;;;;;;5013017;28;20474;-56
2022/05/09 01:42:09;;;;;;;10.30;4.68;;;12.50;74.30;;;;;;5012521;28;20049;-55
2022/05/09 01:44:37;;;;;;;8.10;4.65;;;12.60;74.70;;;;;;5012716;28;20052;-54
2022/05/09 01:49:48;;;;;;;10.45;4.38;;;12.70;74.70;;;;;;5012955;28;20026;-56
2022/05/09 01:52:16;;;;;;;8.88;4.55;;;12.70;75.20;;;;;;5012155;28;20422;-56
2022/05/09 01:54:43;;;;;;;8.60;5.53;;;12.60;75.60;;;;;;5012761;28;20073;-54
2022/05/09 01:57:10;;;;;;;9.10;4.53;;;12.50;76.00;;;;;;5013013;28;20066;-56
2022/05/09 01:59:40;;;;;;;8.77;4.63;;;12.50;76.20;;;;;;5013236;28;20121;-55
2022/05/09 02:02:19;;;;;;;8.40;4.80;;;12.50;76.20;;;;;;5012185;28;20486;-54
2022/05/09 02:04:45;;;;;;;7.88;4.40;;;12.50;75.80;;;;;;5012672;28;20069;-53
2022/05/09 02:07:13;;;;;;;8.65;4.90;;;12.40;76.30;;;;;;5004673;28;20033;-59
2022/05/09 02:09:45;;;;;;;7.45;4.35;;;12.40;76.60;;;;;;5012759;28;20030;-56
2022/05/09 02:12:11;;;;;;;7.60;4.18;;;12.30;77.00;;;;;;5012621;28;20478;-53
2022/05/09 02:14:38;;;;;;;7.40;4.65;;;12.30;77.20;;;;;;5011049;28;20045;-55
2022/05/09 02:17:04;;;;;;;7.95;4.50;;;12.40;77.50;;;;;;5013152;28;20046;-56
2022/05/09 02:19:30;;;;;;;7.68;4.53;;;12.40;76.90;;;;;;5012356;28;20405;-55
2022/05/09 02:21:56;;;;;;;9.63;4.85;;;12.30;77.00;;;;;;5012736;28;20038;-53
2022/05/09 02:24:22;;;;;;;11.93;4.63;;;12.20;76.70;;;;;;5012554;28;20554;-55
2022/05/09 02:26:48;;;;;;;7.35;4.80;;;12.10;77.30;;;;;;5012367;28;20079;-53
2022/05/09 02:29:14;;;;;;;8.50;4.75;;;12.00;78.00;;;;;;5013204;28;20133;-54
2022/05/09 02:31:39;;;;;;;9.70;4.90;;;12.00;78.30;;;;;;5012965;28;20073;-57
2022/05/09 02:34:05;;;;;;;9.18;4.78;;;12.10;78.70;;;;;;5012525;28;20060;-56
2022/05/09 02:36:30;;;;;;;7.15;4.57;;;12.10;79.00;;;;;;5013805;28;20044;-55
2022/05/09 02:38:56;;;;;;;10.20;4.75;;;12.10;79.20;;;;;;5012804;28;20061;-53
2022/05/09 02:41:22;;;;;;;9.43;4.70;;;12.10;79.20;;;;;;5014025;28;20549;-57
2022/05/09 02:43:48;;;;;;;7.38;4.63;;;12.10;79.00;;;;;;5012965;28;20036;-56
2022/05/09 02:46:14;;;;;;;15.15;6.20;;;12.10;79.10;;;;;;5013831;28;20042;-52
2022/05/09 02:48:40;;;;;;;11.27;4.85;;;11.90;79.10;;;;;;5012116;28;20041;-56
2022/05/09 02:51:07;;;;;;;8.65;4.85;;;11.90;79.20;;;;;;5011815;28;20251;-55
2022/05/09 02:53:34;;;;;;;8.95;5.18;;;11.90;79.80;;;;;;5012551;28;20034;-53
2022/05/09 02:55:59;;;;;;;8.32;4.65;;;11.80;79.70;;;;;;5011267;28;20030;-56
2022/05/09 02:58:25;;;;;;;9.10;5.05;;;11.80;79.70;;;;;;5011838;28;20030;-54
2022/05/09 03:00:50;;;;;;;8.82;4.78;;;11.80;80.40;;;;;;5011867;28;20022;-56
2022/05/09 03:06:01;;;;;;;8.43;5.18;;;11.90;81.10;;;;;;5011033;28;20018;-57
2022/05/09 03:08:26;;;;;;;11.80;5.70;;;11.90;81.40;;;;;;5007310;28;20081;-54
2022/05/09 03:10:52;;;;;;;6.22;4.55;;;11.90;80.80;;;;;;5012540;28;20038;-56
2022/05/09 03:13:18;;;;;;;11.80;5.20;;;11.90;80.80;;;;;;5012374;28;20030;-54
2022/05/09 03:15:45;;;;;;;7.85;4.82;;;11.90;80.90;;;;;;5012800;28;20046;-56
2022/05/09 03:18:13;;;;;;;12.35;5.30;;;11.90;80.60;;;;;;5012136;28;20089;-55
2022/05/09 03:20:39;;;;;;;8.98;4.90;;;11.90;80.50;;;;;;5012686;28;20105;-54
2022/05/09 03:23:08;;;;;;;8.27;4.80;;;12.00;80.40;;;;;;5012110;28;20461;-56
2022/05/09 03:25:36;;;;;;;9.05;5.20;;;11.90;80.40;;;;;;5012765;28;20042;-55
2022/05/09 03:28:03;;;;;;;8.50;4.90;;;11.80;79.60;;;;;;5012340;28;20121;-56
2022/05/09 03:30:29;;;;;;;12.10;5.20;;;11.70;79.30;;;;;;5012826;28;20368;-57
2022/05/09 03:32:55;;;;;;;12.23;5.10;;;11.70;79.30;;;;;;5012491;28;20125;-56
2022/05/09 03:35:20;;;;;;;12.30;5.00;;;11.60;79.90;;;;;;5012241;28;20324;-59
2022/05/09 03:37:46;;;;;;;6.88;4.63;;;11.40;80.30;;;;;;5011988;28;20038;-56
2022/05/09 03:40:12;;;;;;;12.13;5.50;;;11.30;81.30;;;;;;5012105;28;20125;-57
2022/05/09 03:42:38;;;;;;;13.52;5.68;;;11.20;81.40;;;;;;5012390;28;20029;-57
2022/05/09 03:45:05;;;;;;;9.55;5.20;;;11.20;81.40;;;;;;5013167;28;20356;-55
2022/05/09 03:47:31;;;;;;;8.75;5.47;;;11.20;81.40;;;;;;5012307;28;20034;-58
2022/05/09 03:49:57;;;;;;;11.90;5.40;;;11.20;81.40;;;;;;5013364;28;20046;-55
2022/05/09 03:52:23;;;;;;;8.90;5.07;;;11.30;81.10;;;;;;5015642;28;20022;-57
2022/05/09 03:54:49;;;;;;;9.73;6.07;;;11.20;81.80;;;;;;5015301;28;20038;-57
2022/05/09 03:57:15;;;;;;;9.30;5.70;;;11.20;82.30;;;;;;5015296;28;20036;-55
2022/05/09 03:59:40;;;;;;;10.98;5.57;;;11.20;82.30;;;;;;5015768;28;20142;-55
2022/05/09 04:02:06;;;;;;;7.72;5.18;;;11.30;82.80;;;;;;5016196;28;20033;-55
2022/05/09 04:04:31;;;;;;;10.85;4.88;;;11.40;82.90;;;;;;5017332;28;20542;-57
2022/05/09 04:06:57;;;;;;;10.68;5.55;;;11.40;82.60;;;;;;5009842;28;20034;-58
2022/05/09 04:09:22;;;;;;;10.98;4.97;;;11.40;82.70;;;;;;5016634;28;20052;-54
2022/05/09 04:11:50;;;;;;;11.30;5.60;;;11.60;82.90;;;;;;5016264;28;20501;-56
2022/05/09 04:16:49;;;;;;;9.52;5.43;;;11.60;83.50;;;;;;5014997;28;20037;-56
2022/05/09 04:17:03;;;;;;;9.63;5.68;;;11.60;83.90;;;;;;5014472;28;20038;-57
2022/05/09 04:19:29;;;;;;;11.43;5.88;;;11.50;83.90;;;;;;5014470;28;20079;-56
2022/05/09 04:21:54;;;;;;;9.45;5.25;;;11.60;83.80;;;;;;5014785;28;20120;-55
2022/05/09 04:24:20;;;;;;;11.43;6.10;;;11.50;83.60;;;;;;5013826;28;20030;-56
2022/05/09 04:26:45;;;;;;;12.55;6.38;;;11.40;83.60;;;;;;5013892;28;20030;-56
2022/05/09 04:29:11;;;;;;;10.18;5.20;;;11.40;84.00;;;;;;5013538;28;20041;-55
2022/05/09 04:31:37;;;;;;;14.57;6.07;;;11.30;84.20;;;;;;5014372;28;20061;-57
2022/05/09 04:34:03;;;;;;;10.27;5.80;;;11.30;83.60;;;;;;5014068;28;20038;-57
2022/05/09 04:36:29;;;;;;;14.48;6.05;;;11.30;83.40;;;;;;5015703;28;20033;-55
2022/05/09 04:38:55;;;;;;;9.48;5.75;;;11.10;85.10;;;;;;5015270;28;20420;-57
2022/05/09 04:41:22;;;;;;;11.23;5.72;;;11.10;84.90;;;;;;5014462;28;20026;-56
2022/05/09 04:43:48;;;;;;;9.63;5.97;;;11.20;84.90;;;;;;5014109;28;20459;-56
2022/05/09 04:46:15;;;;;;;10.77;5.70;;;11.20;84.60;;;;;;5014673;28;20049;-52
2022/05/09 04:48:42;;;;;;;11.55;5.75;;;11.30;85.20;;;;;;5014573;28;20552;-57
2022/05/09 04:51:08;;;;;;;9.98;5.43;;;11.40;85.10;;;;;;5014902;28;20034;-56
2022/05/09 04:53:34;;;;;;;9.75;5.75;;;11.50;84.50;;;;;;5013749;28;20397;-55
2022/05/09 04:56:00;;;;;;;13.65;5.28;;;11.60;84.80;;;;;;5014287;28;20084;-53
2022/05/09 04:58:26;;;;;;;10.40;5.93;;;11.50;85.20;;;;;;5013729;28;20037;-59
2022/05/09 05:00:53;;;;;;;10.90;5.63;;;11.50;85.60;;;;;;5013239;28;20030;-57
2022/05/09 05:03:19;;;;;;;12.38;5.93;;;11.60;85.40;;;;;;5013164;28;20033;-53
2022/05/09 05:05:44;;;;;;;10.70;5.93;;;11.60;85.20;;;;;;5012371;28;20045;-56
2022/05/09 05:08:13;;;;;;;12.40;6.05;;;11.60;85.20;;;;;;5013101;28;20030;-57
2022/05/09 05:10:39;;;;;;;11.52;6.80;;;11.60;84.50;;;;;;5012554;28;20129;-56
2022/05/09 05:13:05;;;;;;;12.85;6.18;;;11.50;84.60;;;;;;5014345;28;20351;-55
2022/05/09 05:15:32;;;;;;;13.18;6.97;;;11.60;84.40;;;;;;5013881;28;20406;-54
2022/05/09 05:17:57;;;;;;;17.15;7.68;;;11.60;84.10;;;;;;5014329;28;20026;-53
2022/05/09 05:20:24;;;;;;;12.13;7.20;;;11.60;84.40;;;;;;5013171;28;20038;-53
2022/05/09 05:22:50;;;;;;;11.05;7.07;;;11.70;84.40;;;;;;5013766;28;20042;-56
2022/05/09 05:25:36;;;;;;;11.93;6.07;;;11.80;84.40;;;;;;5013251;28;20383;-56
2022/05/09 05:28:01;;;;;;;18.08;8.98;;;12.00;84.10;;;;;;5013919;28;20030;-54
2022/05/09 05:30:27;;;;;;;14.77;7.13;;;12.10;84.00;;;;;;5013202;28;20026;-58
2022/05/09 05:32:55;;;;;;;15.50;6.55;;;12.20;83.50;;;;;;5014072;28;20474;-55
2022/05/09 05:35:23;;;;;;;13.18;6.63;;;12.10;83.20;;;;;;5014052;28;20080;-56
2022/05/09 05:37:49;;;;;;;15.35;7.05;;;12.30;83.10;;;;;;5014545;28;20061;-57
2022/05/09 05:40:17;;;;;;;13.45;5.93;;;12.30;83.60;;;;;;5011479;28;20556;-55
2022/05/09 05:42:44;;;;;;;15.50;6.47;;;12.50;83.20;;;;;;5013911;28;20509;-53
2022/05/09 05:45:12;;;;;;;10.25;5.78;;;12.70;83.00;;;;;;5013586;28;20033;-57
2022/05/09 05:47:38;;;;;;;13.63;6.88;;;12.90;82.50;;;;;;5013430;28;20045;-56
2022/05/09 05:50:06;;;;;;;12.27;5.78;;;13.00;81.50;;;;;;5012597;28;20044;-54
2022/05/09 05:52:32;;;;;;;17.63;9.25;;;13.10;81.50;;;;;;5012981;28;20034;-53
2022/05/09 05:54:57;;;;;;;13.90;6.80;;;13.30;81.20;;;;;;5012789;28;20037;-51
2022/05/09 05:57:25;;;;;;;19.80;6.82;;;13.40;80.90;;;;;;5012765;28;20429;-56
2022/05/09 06:00:06;;;;;;;11.98;6.13;;;13.60;80.60;;;;;;5012360;28;20037;-55
2022/05/09 06:02:32;;;;;;;10.38;5.43;;;13.60;79.80;;;;;;5012219;28;20453;-56
2022/05/09 06:04:58;;;;;;;12.43;6.40;;;13.70;79.70;;;;;;5012747;28;20042;-57
2022/05/09 06:07:24;;;;;;;16.95;7.60;;;13.80;79.30;;;;;;5004969;28;20096;-54
2022/05/09 06:09:51;;;;;;;13.50;6.65;;;13.80;79.10;;;;;;5013301;28;20042;-55
2022/05/09 06:12:21;;;;;;;13.27;6.75;;;13.90;79.10;;;;;;5014643;28;20092;-55
2022/05/09 06:15:24;;;;;;;10.70;5.85;;;14.00;78.70;;;;;;5014723;28;20034;-53
2022/05/09 06:17:34;;;;;;;10.65;6.00;;;14.10;78.50;;;;;;5013652;28;20033;-55
2022/05/09 06:20:00;;;;;;;9.65;6.10;;;14.10;78.20;;;;;;5011720;28;20062;-56
2022/05/09 06:22:26;;;;;;;11.75;6.03;;;14.20;78.00;;;;;;5011261;28;20665;-54
2022/05/09 06:24:58;;;;;;;15.65;5.88;;;14.20;77.90;;;;;;5013045;28;20548;-55
2022/05/09 06:27:24;;;;;;;11.80;5.43;;;14.30;77.80;;;;;;5012359;28;20040;-54
2022/05/09 06:29:49;;;;;;;12.82;5.38;;;14.30;77.60;;;;;;4995511;28;20026;-53
2022/05/09 06:32:18;;;;;;;17.35;8.95;;;14.40;77.30;;;;;;5011474;28;20041;-53
2022/05/09 06:34:44;;;;;;;16.80;8.48;;;14.40;77.40;;;;;;5012891;28;20100;-54
2022/05/09 06:37:10;;;;;;;16.48;8.45;;;14.40;77.40;;;;;;5012413;28;20049;-55
2022/05/09 06:39:36;;;;;;;19.20;10.77;;;14.40;77.20;;;;;;5013050;28;20052;-56
2022/05/09 06:42:03;;;;;;;17.25;7.85;;;14.40;77.80;;;;;;5013193;28;20045;-57
2022/05/09 06:44:29;;;;;;;13.45;6.50;;;14.40;77.80;;;;;;5013619;28;20026;-54
2022/05/09 06:46:54;;;;;;;11.60;6.07;;;14.50;77.40;;;;;;5014556;28;20083;-55
2022/05/09 06:49:22;;;;;;;14.55;6.38;;;14.60;77.20;;;;;;5014318;28;20160;-52
2022/05/09 06:51:48;;;;;;;15.75;6.88;;;14.70;77.00;;;;;;5013460;28;20029;-55
2022/05/09 06:54:16;;;;;;;13.10;6.25;;;14.70;76.70;;;;;;5013500;28;20508;-54
2022/05/09 06:56:42;;;;;;;11.48;6.10;;;14.60;77.30;;;;;;5011410;28;20029;-56
2022/05/09 06:59:08;;;;;;;13.65;7.65;;;14.80;77.00;;;;;;5011581;28;20122;-57
2022/05/09 07:01:37;;;;;;;16.95;7.25;;;14.90;77.50;;;;;;5006400;28;20102;-57
2022/05/09 07:04:03;;;;;;;15.50;8.50;;;14.90;76.80;;;;;;5012949;28;20062;-55
2022/05/09 07:06:28;;;;;;;13.73;6.15;;;15.00;76.90;;;;;;5012234;28;20156;-54
2022/05/09 07:08:54;;;;;;;11.10;6.47;;;15.10;76.40;;;;;;5007008;28;20127;-56
2022/05/09 07:11:20;;;;;;;11.93;6.35;;;15.10;76.00;;;;;;5010433;28;20038;-53
2022/05/09 07:13:45;;;;;;;12.98;6.65;;;15.00;76.50;;;;;;5009689;28;20092;-55
2022/05/09 07:16:11;;;;;;;14.18;6.18;;;15.00;76.70;;;;;;5010853;28;20117;-53
2022/05/09 07:18:38;;;;;;;11.68;6.43;;;15.20;76.50;;;;;;5011044;28;20128;-57
2022/05/09 07:21:05;;;;;;;12.75;6.03;;;15.20;76.80;;;;;;5010446;28;20401;-60
2022/05/09 07:23:31;;;;;;;9.07;5.70;;;15.30;76.90;;;;;;5010471;28;20037;-58
2022/05/09 07:25:56;;;;;;;10.45;5.65;;;15.40;76.50;;;;;;5011092;28;20079;-56
2022/05/09 07:28:22;;;;;;;13.23;5.80;;;15.50;76.20;;;;;;5013773;28;20493;-57
2022/05/09 07:30:49;;;;;;;11.77;6.07;;;15.50;76.20;;;;;;5014975;28;20029;-58
2022/05/09 07:33:18;;;;;;;12.40;6.00;;;15.50;76.00;;;;;;5016013;28;20520;-59
2022/05/09 07:35:44;;;;;;;16.77;5.82;;;15.60;75.80;;;;;;5014636;28;20045;-57
2022/05/09 07:38:11;;;;;;;12.07;6.10;;;15.60;76.00;;;;;;5015673;28;20486;-55
2022/05/09 07:40:38;;;;;;;11.02;5.72;;;15.70;76.30;;;;;;5012261;28;20092;-58
2022/05/09 07:43:12;;;;;;;8.95;5.43;;;15.80;76.10;;;;;;5016719;28;20030;-60
2022/05/09 07:45:38;;;;;;;13.38;6.13;;;15.90;75.90;;;;;;5014531;28;20105;-55
2022/05/09 07:48:03;;;;;;;14.90;7.35;;;15.80;75.60;;;;;;5014407;28;20057;-59
2022/05/09 07:50:29;;;;;;;14.35;8.23;;;15.70;76.50;;;;;;5016533;28;20444;-59
2022/05/09 07:52:55;;;;;;;16.13;7.72;;;15.80;76.60;;;;;;5015863;28;20026;-57
2022/05/09 07:55:20;;;;;;;11.23;5.65;;;15.80;75.80;;;;;;5014671;28;20498;-59
2022/05/09 07:57:46;;;;;;;11.13;5.50;;;15.80;75.60;;;;;;5013650;28;20070;-56
2022/05/09 08:00:12;;;;;;;14.10;7.10;;;15.80;75.60;;;;;;5012908;28;20045;-58
2022/05/09 08:02:40;;;;;;;14.23;6.72;;;15.80;75.60;;;;;;5016338;28;20033;-60
2022/05/09 08:05:09;;;;;;;12.50;6.13;;;15.80;76.80;;;;;;5015119;28;20026;-57
2022/05/09 08:07:36;;;;;;;11.45;6.35;;;15.90;76.10;;;;;;5013885;28;20006;-58
2022/05/09 08:10:01;;;;;;;12.65;6.35;;;16.10;76.20;;;;;;5014042;28;20069;-53
2022/05/09 08:12:27;;;;;;;10.02;5.80;;;16.30;76.00;;;;;;5013895;28;20266;-53
2022/05/09 08:14:53;;;;;;;11.20;5.22;;;16.40;75.90;;;;;;4996222;28;20552;-56
2022/05/09 08:17:18;;;;;;;81.15;13.43;;;16.60;75.50;;;;;;5014877;28;20531;-55
2022/05/09 08:19:45;;;;;;;14.18;6.47;;;16.60;75.00;;;;;;5013147;28;20528;-56
2022/05/09 08:22:11;;;;;;;16.83;5.93;;;16.60;74.60;;;;;;5024277;28;20033;-56
2022/05/09 08:24:36;;;;;;;15.05;7.55;;;16.70;74.40;;;;;;5013041;28;20048;-55
2022/05/09 08:27:02;;;;;;;16.05;6.30;;;16.70;73.30;;;;;;5015393;28;20033;-52
2022/05/09 08:29:28;;;;;;;15.63;5.75;;;16.80;73.20;;;;;;5013401;28;20116;-53
2022/05/09 08:31:53;;;;;;;10.07;5.53;;;16.90;73.20;;;;;;5014824;28;20133;-55
2022/05/09 08:34:19;;;;;;;15.35;6.18;;;16.90;73.30;;;;;;5013144;28;20037;-60
2022/05/09 08:36:53;;;;;;;12.88;5.78;;;17.10;74.50;;;;;;5010012;28;20076;-64
2022/05/09 08:39:20;;;;;;;11.00;6.07;;;17.20;74.10;;;;;;5011349;28;20040;-60
2022/05/09 08:41:58;;;;;;;12.65;5.95;;;17.40;73.30;;;;;;5010554;28;20053;-55
2022/05/09 08:45:07;;;;;;;12.45;6.55;;;17.60;72.80;;;;;;5002897;28;20022;-53
2022/05/09 08:51:09;;;;;;;;;;;18.00;73.10;;;;;;4977851;28;20364;-56
2022/05/09 08:53:42;;;;;;;13.95;6.43;;;18.00;71.50;;;;;;5014244;28;20369;-54
2022/05/09 08:56:13;;;;;;;13.13;6.18;;;18.20;71.70;;;;;;5011697;28;20464;-56
2022/05/09 08:59:11;;;;;;;10.43;5.55;;;18.40;71.70;;;;;;5013559;28;20037;-52
2022/05/09 09:01:51;;;;;;;12.82;5.50;;;18.70;70.40;;;;;;5021608;28;20033;-54
2022/05/09 09:04:28;;;;;;;11.07;5.18;;;18.80;69.80;;;;;;5014014;28;20030;-54
2022/05/09 09:07:08;;;;;;;14.38;5.80;;;19.00;68.90;;;;;;5013902;28;20282;-50
2022/05/09 09:10:03;;;;;;;11.50;6.05;;;19.20;68.50;;;;;;5008388;28;20552;-54
2022/05/09 09:12:47;;;;;;;13.40;6.63;;;19.10;69.00;;;;;;5014519;28;20342;-56
2022/05/09 09:15:25;;;;;;;16.20;5.93;;;19.30;69.00;;;;;;5012150;28;20402;-53
2022/05/09 09:18:25;;;;;;;10.73;5.70;;;19.40;67.90;;;;;;5011977;28;20025;-53
2022/05/09 09:21:03;;;;;;;14.00;5.70;;;19.50;68.20;;;;;;5010932;28;20033;-53
2022/05/09 09:23:31;;;;;;;12.13;6.18;;;19.50;68.60;;;;;;5013814;28;20065;-55
2022/05/09 09:26:16;;;;;;;17.60;6.32;;;19.40;68.60;;;;;;5007566;28;20545;-55
2022/05/09 09:28:47;;;;;;;12.98;6.65;;;19.00;69.10;;;;;;5012268;28;20026;-53
2022/05/09 09:31:20;;;;;;;15.77;6.72;;;18.90;69.20;;;;;;5011026;28;20022;-51
2022/05/09 09:34:01;;;;;;;15.18;6.18;;;18.80;69.60;;;;;;5003928;28;20061;-54
2022/05/09 09:36:35;;;;;;;14.93;6.85;;;18.80;71.20;;;;;;5016585;28;20022;-57
2022/05/09 09:39:17;;;;;;;8.67;5.57;;;18.80;70.60;;;;;;5013012;28;20044;-53
2022/05/09 09:41:43;;;;;;;8.95;5.95;;;18.80;70.80;;;;;;5011877;28;20824;-53
2022/05/09 09:44:16;;;;;;;13.75;5.78;;;19.10;69.80;;;;;;5010630;28;20120;-56
2022/05/09 09:47:06;;;;;;;16.70;6.03;;;19.40;68.30;;;;;;5014470;28;20026;-56
2022/05/09 09:49:40;;;;;;;8.02;5.28;;;19.40;67.90;;;;;;4999646;28;20026;-55
2022/05/09 09:52:38;;;;;;;12.60;5.82;;;19.30;67.90;;;;;;5006610;28;20029;-50
2022/05/09 09:55:19;;;;;;;11.70;5.78;;;19.30;67.10;;;;;;5008738;28;20037;-54
2022/05/09 09:57:46;;;;;;;8.52;4.93;;;19.60;67.20;;;;;;5010817;28;20033;-53
2022/05/09 10:00:21;;;;;;;9.20;5.63;;;19.90;66.80;;;;;;5009303;28;20033;-49
2022/05/09 10:02:48;;;;;;;10.02;5.50;;;20.10;66.80;;;;;;5011852;28;20619;-50
2022/05/09 10:05:20;;;;;;;14.90;6.10;;;20.30;66.50;;;;;;5003041;28;20027;-54
2022/05/09 10:07:46;;;;;;;8.35;5.28;;;20.40;65.80;;;;;;5010840;28;20037;-54
2022/05/09 10:10:17;;;;;;;10.23;5.80;;;20.40;66.00;;;;;;5012458;28;20030;-54
2022/05/09 10:12:49;;;;;;;12.48;5.95;;;20.40;66.00;;;;;;5010455;28;20029;-53
2022/05/09 10:15:35;;;;;;;11.10;4.65;;;20.20;66.20;;;;;;5010789;28;20480;-50
2022/05/09 10:18:23;;;;;;;11.10;5.93;;;19.90;66.20;;;;;;5011047;28;20034;-54
2022/05/09 10:20:51;;;;;;;19.83;6.07;;;19.80;66.10;;;;;;5009713;28;20128;-56
2022/05/09 10:26:21;;;;;;;9.80;4.97;;;19.80;67.40;;;;;;5009856;28;20033;-53
2022/05/09 10:28:50;;;;;;;8.68;4.28;;;20.00;65.30;;;;;;5009678;28;20041;-53
2022/05/09 10:31:35;;;;;;;11.35;5.38;;;20.20;65.30;;;;;;5013682;28;20111;-53
2022/05/09 10:34:05;;;;;;;;;;;20.50;65.10;;;;;;5018071;28;20100;-57
2022/05/09 10:36:37;;;;;;;8.18;4.57;;;20.50;63.90;;;;;;5006568;28;19935;-54
2022/05/09 10:39:14;;;;;;;10.98;4.45;;;20.50;63.30;;;;;;5010943;28;20034;-51
2022/05/09 10:41:52;;;;;;;8.98;5.20;;;20.60;63.30;;;;;;5010758;28;20053;-55
2022/05/09 10:45:01;;;;;;;13.02;4.72;;;20.50;63.10;;;;;;5010501;28;20037;-55
2022/05/09 10:47:47;;;;;;;13.85;4.97;;;20.50;61.90;;;;;;5009797;28;20497;-55
2022/05/09 10:50:26;;;;;;;9.50;4.20;;;20.60;62.10;;;;;;5009734;28;20026;-50
2022/05/09 10:53:03;;;;;;;11.40;5.60;;;20.70;62.50;;;;;;5012194;28;20044;-52
2022/05/09 10:55:35;;;;;;;10.15;5.03;;;20.80;63.40;;;;;;5011526;28;20117;-50
2022/05/09 10:58:19;;;;;;;9.73;5.20;;;20.80;62.90;;;;;;5012514;28;20049;-53
2022/05/09 11:00:52;;;;;;;15.65;4.95;;;20.70;62.60;;;;;;5009129;28;20033;-53
2022/05/09 11:03:26;;;;;;;10.60;4.68;;;20.80;62.90;;;;;;5004473;28;20030;-52
2022/05/09 11:05:58;;;;;;;9.70;5.03;;;20.70;62.40;;;;;;5009462;28;20489;-54
2022/05/09 11:09:12;;;;;;;47.55;11.07;;;20.70;62.50;;;;;;5007465;28;20025;-53
2022/05/09 11:12:03;;;;;;;9.00;4.78;;;20.70;60.30;;;;;;5011360;28;20018;-54
2022/05/09 11:14:45;;;;;;;10.63;4.40;;;20.60;60.60;;;;;;5007123;28;20370;-53
2022/05/09 11:17:45;;;;;;;10.68;4.20;;;20.70;60.70;;;;;;5006800;28;20026;-55
2022/05/09 11:20:29;;;;;;;9.60;4.22;;;20.80;59.80;;;;;;5010092;28;20490;-54
2022/05/09 11:23:09;;;;;;;9.73;4.13;;;20.90;57.10;;;;;;5008150;28;20097;-52
2022/05/09 11:26:00;;;;;;;8.18;4.03;;;21.00;57.80;;;;;;5005666;28;20035;-51
2022/05/09 11:28:55;;;;;;;10.30;4.22;;;21.00;56.30;;;;;;5012137;28;20529;-54
2022/05/09 11:31:38;;;;;;;8.07;4.32;;;21.00;56.90;;;;;;5013712;28;20022;-56
2022/05/09 11:34:26;;;;;;;8.97;3.70;;;21.00;58.00;;;;;;4993677;28;20049;-56
2022/05/09 11:37:10;;;;;;;11.07;4.72;;;21.10;59.00;;;;;;5008324;28;20133;-56
2022/05/09 11:39:47;;;;;;;7.80;4.45;;;21.10;59.40;;;;;;5005793;28;20106;-53
2022/05/09 11:45:37;;;;;;;9.43;4.65;;;21.40;58.90;;;;;;5012841;28;20489;-50
2022/05/09 11:48:21;;;;;;;9.18;4.13;;;21.40;59.70;;;;;;5015435;28;20026;-54
2022/05/09 11:51:25;;;;;;;10.07;5.10;;;21.40;59.70;;;;;;5012439;28;20394;-57
2022/05/09 11:53:59;;;;;;;15.43;5.57;;;21.40;60.30;;;;;;5000240;28;20038;-53
2022/05/09 11:56:25;;;;;;;8.63;4.38;;;21.40;59.90;;;;;;5012309;28;20061;-55
2022/05/09 11:58:52;;;;;;;11.45;3.75;;;21.30;59.90;;;;;;5011759;28;20042;-55
2022/05/09 12:01:56;;;;;;;14.85;5.72;;;21.30;59.30;;;;;;5006238;28;20026;-52
2022/05/09 12:04:40;;;;;;;17.10;6.90;;;21.50;58.90;;;;;;5008262;28;20072;-51
2022/05/09 12:07:21;;;;;;;12.23;4.88;;;21.40;58.70;;;;;;5010402;28;20034;-55
2022/05/09 12:10:15;;;;;;;10.80;5.47;;;21.50;59.60;;;;;;5005895;28;20038;-52
2022/05/09 12:12:49;;;;;;;9.63;4.30;;;21.60;59.90;;;;;;5011814;28;20064;-53
2022/05/09 12:15:14;;;;;;;;;;;21.60;59.90;;;;;;5013528;28;20048;-54
2022/05/09 12:17:42;;;;;;;27.48;7.03;;;21.60;59.90;;;;;;5013212;28;19913;-50
2022/05/09 12:20:36;;;;;;;15.27;5.10;;;21.80;60.20;;;;;;5012261;28;20029;-53
2022/05/09 12:23:47;;;;;;;8.27;4.10;;;22.00;60.00;;;;;;5012438;28;20051;-52
2022/05/09 12:26:33;;;;;;;8.45;4.38;;;22.30;59.10;;;;;;5012837;28;20026;-56
2022/05/09 12:29:28;;;;;;;7.78;4.20;;;22.10;58.90;;;;;;5011735;28;20026;-53
2022/05/09 12:32:00;;;;;;;9.68;4.82;;;22.00;59.30;;;;;;5014903;28;20022;-54
2022/05/09 12:34:36;;;;;;;10.10;4.03;;;22.20;59.70;;;;;;5013909;28;20052;-56
2022/05/09 12:37:02;;;;;;;7.63;4.57;;;22.40;60.10;;;;;;5012551;28;20087;-56
2022/05/09 12:39:48;;;;;;;8.55;4.07;;;22.60;59.40;;;;;;5013846;28;20032;-56
2022/05/09 12:42:29;;;;;;;10.95;4.72;;;22.80;59.20;;;;;;5014989;28;20380;-54
2022/05/09 12:44:57;;;;;;;13.00;4.40;;;22.90;59.10;;;;;;5011359;28;20018;-52
2022/05/09 12:47:28;;;;;;;9.18;4.60;;;23.10;59.00;;;;;;5013451;28;20026;-54
2022/05/09 12:50:01;;;;;;;7.40;3.83;;;23.20;58.20;;;;;;5012430;28;20034;-56
2022/05/09 12:52:32;;;;;;;6.68;4.10;;;23.20;57.50;;;;;;5013607;28;20521;-55
2022/05/09 12:57:44;;;;;;;8.35;4.07;;;23.40;57.60;;;;;;5010142;28;20117;-54
2022/05/09 13:00:16;;;;;;;9.65;4.22;;;23.60;57.80;;;;;;5010001;28;20109;-52
2022/05/09 13:02:43;;;;;;;9.20;3.83;;;23.40;56.50;;;;;;5013996;28;20045;-54
2022/05/09 13:05:10;;;;;;;7.18;3.58;;;23.20;57.10;;;;;;5014101;28;20037;-52
2022/05/09 13:08:00;;;;;;;8.85;3.90;;;23.40;57.00;;;;;;5017862;28;20021;-55
2022/05/09 13:10:29;;;;;;;6.80;4.50;;;23.60;57.00;;;;;;5013734;28;20032;-53
2022/05/09 13:12:58;;;;;;;6.60;3.58;;;23.60;56.40;;;;;;5012866;28;20026;-55
2022/05/09 13:15:24;;;;;;;7.10;3.97;;;23.70;57.00;;;;;;5013747;28;20044;-54
2022/05/09 13:17:58;;;;;;;5.07;3.70;;;23.80;56.70;;;;;;5014047;28;20427;-51
2022/05/09 13:20:26;;;;;;;;;;;24.10;56.90;;;;;;5015214;28;20026;-54